sensor_id;sensor_type;location;lat;lon;timestamp;P1;durP1;ratioP1;P2;durP2;ratioP2
21424;SDS011;10873;51.132;16.848;2022-11-15T00:00:43;29.60;;;19.85;;
21424;SDS011;10873;51.132;16.848;2022-11-15T00:03:09;28.48;;;19.00;;
21424;SDS011;10873;51.132;16.848;2022-11-15T00:05:35;28.58;;;19.60;;
21424;SDS011;10873;51.132;16.848;2022-11-15T00:08:01;26.90;;;19.85;;
21424;SDS011;10873;51.132;16.848;2022-11-15T00:10:27;27.58;;;19.50;;
21424;SDS011;10873;51.132;16.848;2022-11-15T00:12:53;29.23;;;20.27;;
21424;SDS011;10873;51.132;16.848;2022-11-15T00:15:20;28.80;;;20.23;;
21424;SDS011;10873;51.132;16.848;2022-11-15T00:17:48;28.80;;;19.80;;
21424;SDS011;10873;51.132;16.848;2022-11-15T00:35:48;30.27;;;20.77;;
21424;SDS011;10873;51.132;16.848;2022-11-15T00:38:14;28.63;;;20.13;;
21424;SDS011;10873;51.132;16.848;2022-11-15T00:40:40;29.75;;;20.83;;
21424;SDS011;10873;51.132;16.848;2022-11-15T00:43:06;27.67;;;19.70;;
21424;SDS011;10873;51.132;16.848;2022-11-15T00:45:33;30.33;;;20.23;;
21424;SDS011;10873;51.132;16.848;2022-11-15T00:47:59;29.10;;;20.27;;
21424;SDS011;10873;51.132;16.848;2022-11-15T00:50:25;30.02;;;20.80;;
21424;SDS011;10873;51.132;16.848;2022-11-15T00:52:52;26.70;;;19.77;;
21424;SDS011;10873;51.132;16.848;2022-11-15T00:55:18;28.60;;;20.30;;
21424;SDS011;10873;51.132;16.848;2022-11-15T00:57:45;31.65;;;21.65;;
21424;SDS011;10873;51.132;16.848;2022-11-15T01:00:11;31.17;;;20.88;;
21424;SDS011;10873;51.132;16.848;2022-11-15T01:02:38;29.00;;;19.95;;
21424;SDS011;10873;51.132;16.848;2022-11-15T01:05:04;28.77;;;19.88;;
21424;SDS011;10873;51.132;16.848;2022-11-15T01:07:31;27.42;;;19.77;;
21424;SDS011;10873;51.132;16.848;2022-11-15T01:09:59;29.67;;;20.30;;
21424;SDS011;10873;51.132;16.848;2022-11-15T01:12:25;25.77;;;19.27;;
21424;SDS011;10873;51.132;16.848;2022-11-15T01:14:51;30.20;;;21.10;;
21424;SDS011;10873;51.132;16.848;2022-11-15T01:17:17;29.00;;;20.60;;
21424;SDS011;10873;51.132;16.848;2022-11-15T01:19:43;26.05;;;18.55;;
21424;SDS011;10873;51.132;16.848;2022-11-15T01:22:09;27.50;;;19.40;;
21424;SDS011;10873;51.132;16.848;2022-11-15T01:24:35;26.67;;;19.77;;
21424;SDS011;10873;51.132;16.848;2022-11-15T01:27:03;27.73;;;18.73;;
21424;SDS011;10873;51.132;16.848;2022-11-15T01:29:29;26.17;;;19.63;;
21424;SDS011;10873;51.132;16.848;2022-11-15T01:31:55;27.80;;;19.25;;
21424;SDS011;10873;51.132;16.848;2022-11-15T01:34:21;29.38;;;20.05;;
21424;SDS011;10873;51.132;16.848;2022-11-15T01:36:47;27.67;;;18.88;;
21424;SDS011;10873;51.132;16.848;2022-11-15T01:39:13;26.95;;;18.92;;
21424;SDS011;10873;51.132;16.848;2022-11-15T01:41:39;27.77;;;19.20;;
21424;SDS011;10873;51.132;16.848;2022-11-15T01:47:10;27.25;;;19.17;;
21424;SDS011;10873;51.132;16.848;2022-11-15T01:49:39;24.90;;;18.38;;
21424;SDS011;10873;51.132;16.848;2022-11-15T01:52:09;27.52;;;19.58;;
21424;SDS011;10873;51.132;16.848;2022-11-15T01:54:43;28.85;;;19.25;;
21424;SDS011;10873;51.132;16.848;2022-11-15T01:57:10;29.55;;;19.80;;
21424;SDS011;10873;51.132;16.848;2022-11-15T01:59:39;26.75;;;18.73;;
21424;SDS011;10873;51.132;16.848;2022-11-15T02:02:08;26.95;;;19.25;;
21424;SDS011;10873;51.132;16.848;2022-11-15T02:04:35;30.30;;;20.38;;
21424;SDS011;10873;51.132;16.848;2022-11-15T02:07:05;27.80;;;19.42;;
21424;SDS011;10873;51.132;16.848;2022-11-15T02:09:34;29.27;;;20.00;;
21424;SDS011;10873;51.132;16.848;2022-11-15T02:12:02;26.92;;;19.33;;
21424;SDS011;10873;51.132;16.848;2022-11-15T02:14:28;28.92;;;20.05;;
21424;SDS011;10873;51.132;16.848;2022-11-15T02:16:58;27.98;;;18.70;;
21424;SDS011;10873;51.132;16.848;2022-11-15T02:19:40;28.95;;;19.75;;
21424;SDS011;10873;51.132;16.848;2022-11-15T02:22:26;27.20;;;20.00;;
21424;SDS011;10873;51.132;16.848;2022-11-15T02:25:20;28.15;;;18.58;;
21424;SDS011;10873;51.132;16.848;2022-11-15T02:31:06;27.88;;;19.23;;
21424;SDS011;10873;51.132;16.848;2022-11-15T02:33:38;27.27;;;19.27;;
21424;SDS011;10873;51.132;16.848;2022-11-15T02:36:11;28.90;;;19.30;;
21424;SDS011;10873;51.132;16.848;2022-11-15T02:38:43;29.15;;;19.45;;
21424;SDS011;10873;51.132;16.848;2022-11-15T02:41:20;29.15;;;20.60;;
21424;SDS011;10873;51.132;16.848;2022-11-15T02:43:53;27.83;;;19.52;;
21424;SDS011;10873;51.132;16.848;2022-11-15T02:46:28;28.35;;;18.95;;
21424;SDS011;10873;51.132;16.848;2022-11-15T02:49:17;29.58;;;19.50;;
21424;SDS011;10873;51.132;16.848;2022-11-15T02:51:44;28.02;;;20.05;;
21424;SDS011;10873;51.132;16.848;2022-11-15T02:54:14;26.35;;;18.80;;
21424;SDS011;10873;51.132;16.848;2022-11-15T02:56:43;29.23;;;19.83;;
21424;SDS011;10873;51.132;16.848;2022-11-15T02:59:18;26.83;;;18.90;;
21424;SDS011;10873;51.132;16.848;2022-11-15T03:01:59;30.10;;;19.92;;
21424;SDS011;10873;51.132;16.848;2022-11-15T03:04:37;28.17;;;19.83;;
21424;SDS011;10873;51.132;16.848;2022-11-15T03:07:10;26.48;;;19.33;;
21424;SDS011;10873;51.132;16.848;2022-11-15T03:09:40;28.50;;;19.35;;
21424;SDS011;10873;51.132;16.848;2022-11-15T03:12:12;27.67;;;19.98;;
21424;SDS011;10873;51.132;16.848;2022-11-15T03:14:47;26.67;;;18.98;;
21424;SDS011;10873;51.132;16.848;2022-11-15T03:17:22;26.23;;;19.20;;
21424;SDS011;10873;51.132;16.848;2022-11-15T03:19:52;29.50;;;19.55;;
21424;SDS011;10873;51.132;16.848;2022-11-15T03:22:21;29.02;;;19.73;;
21424;SDS011;10873;51.132;16.848;2022-11-15T03:24:52;28.58;;;19.33;;
21424;SDS011;10873;51.132;16.848;2022-11-15T03:27:20;26.85;;;19.30;;
21424;SDS011;10873;51.132;16.848;2022-11-15T03:29:51;28.20;;;20.10;;
21424;SDS011;10873;51.132;16.848;2022-11-15T03:32:20;26.08;;;18.40;;
21424;SDS011;10873;51.132;16.848;2022-11-15T03:34:52;28.92;;;19.65;;
21424;SDS011;10873;51.132;16.848;2022-11-15T03:37:22;29.30;;;20.55;;
21424;SDS011;10873;51.132;16.848;2022-11-15T03:39:54;29.45;;;20.08;;
21424;SDS011;10873;51.132;16.848;2022-11-15T03:42:21;28.58;;;19.52;;
21424;SDS011;10873;51.132;16.848;2022-11-15T03:44:53;28.55;;;20.42;;
21424;SDS011;10873;51.132;16.848;2022-11-15T03:47:27;27.00;;;20.05;;
21424;SDS011;10873;51.132;16.848;2022-11-15T03:49:58;27.75;;;20.10;;
21424;SDS011;10873;51.132;16.848;2022-11-15T03:52:30;28.95;;;20.08;;
21424;SDS011;10873;51.132;16.848;2022-11-15T03:54:58;30.90;;;20.55;;
21424;SDS011;10873;51.132;16.848;2022-11-15T03:57:26;28.52;;;20.33;;
21424;SDS011;10873;51.132;16.848;2022-11-15T03:59:53;29.63;;;20.67;;
21424;SDS011;10873;51.132;16.848;2022-11-15T04:02:18;29.05;;;20.77;;
21424;SDS011;10873;51.132;16.848;2022-11-15T04:04:46;28.45;;;19.58;;
21424;SDS011;10873;51.132;16.848;2022-11-15T04:07:12;27.63;;;20.13;;
21424;SDS011;10873;51.132;16.848;2022-11-15T04:09:38;27.50;;;20.45;;
21424;SDS011;10873;51.132;16.848;2022-11-15T04:12:24;26.77;;;19.75;;
21424;SDS011;10873;51.132;16.848;2022-11-15T04:14:56;30.23;;;20.35;;
21424;SDS011;10873;51.132;16.848;2022-11-15T04:17:38;28.73;;;19.95;;
21424;SDS011;10873;51.132;16.848;2022-11-15T04:20:08;28.17;;;19.48;;
21424;SDS011;10873;51.132;16.848;2022-11-15T04:22:55;28.40;;;20.50;;
21424;SDS011;10873;51.132;16.848;2022-11-15T04:25:41;27.45;;;18.60;;
21424;SDS011;10873;51.132;16.848;2022-11-15T04:28:08;29.85;;;20.17;;
21424;SDS011;10873;51.132;16.848;2022-11-15T04:30:34;28.90;;;19.73;;
21424;SDS011;10873;51.132;16.848;2022-11-15T04:33:00;27.33;;;19.33;;
21424;SDS011;10873;51.132;16.848;2022-11-15T04:35:28;27.33;;;19.63;;
21424;SDS011;10873;51.132;16.848;2022-11-15T04:37:54;27.23;;;19.77;;
21424;SDS011;10873;51.132;16.848;2022-11-15T04:40:20;25.95;;;19.60;;
21424;SDS011;10873;51.132;16.848;2022-11-15T04:42:46;26.95;;;19.88;;
21424;SDS011;10873;51.132;16.848;2022-11-15T04:45:12;26.73;;;19.23;;
21424;SDS011;10873;51.132;16.848;2022-11-15T04:47:38;27.80;;;19.48;;
21424;SDS011;10873;51.132;16.848;2022-11-15T04:50:05;29.30;;;20.17;;
21424;SDS011;10873;51.132;16.848;2022-11-15T04:52:32;24.10;;;18.80;;
21424;SDS011;10873;51.132;16.848;2022-11-15T04:54:59;27.02;;;19.63;;
21424;SDS011;10873;51.132;16.848;2022-11-15T04:57:24;25.92;;;19.58;;
21424;SDS011;10873;51.132;16.848;2022-11-15T04:59:51;25.92;;;19.42;;
21424;SDS011;10873;51.132;16.848;2022-11-15T05:02:16;25.13;;;18.83;;
21424;SDS011;10873;51.132;16.848;2022-11-15T05:04:42;26.00;;;17.95;;
21424;SDS011;10873;51.132;16.848;2022-11-15T05:07:08;24.75;;;18.33;;
21424;SDS011;10873;51.132;16.848;2022-11-15T05:09:36;24.52;;;17.42;;
21424;SDS011;10873;51.132;16.848;2022-11-15T05:12:02;24.05;;;17.95;;
21424;SDS011;10873;51.132;16.848;2022-11-15T05:14:28;23.45;;;17.48;;
21424;SDS011;10873;51.132;16.848;2022-11-15T05:16:54;28.15;;;18.40;;
21424;SDS011;10873;51.132;16.848;2022-11-15T05:19:20;22.13;;;17.33;;
21424;SDS011;10873;51.132;16.848;2022-11-15T05:21:46;25.88;;;18.25;;
21424;SDS011;10873;51.132;16.848;2022-11-15T05:24:13;24.95;;;17.83;;
21424;SDS011;10873;51.132;16.848;2022-11-15T05:26:40;26.35;;;17.63;;
21424;SDS011;10873;51.132;16.848;2022-11-15T05:29:08;25.83;;;18.77;;
21424;SDS011;10873;51.132;16.848;2022-11-15T05:31:36;24.67;;;18.65;;
21424;SDS011;10873;51.132;16.848;2022-11-15T05:34:05;24.55;;;18.00;;
21424;SDS011;10873;51.132;16.848;2022-11-15T05:36:31;26.27;;;18.73;;
21424;SDS011;10873;51.132;16.848;2022-11-15T05:39:01;25.92;;;19.10;;
21424;SDS011;10873;51.132;16.848;2022-11-15T05:41:29;26.67;;;19.60;;
21424;SDS011;10873;51.132;16.848;2022-11-15T05:44:01;30.13;;;20.23;;
21424;SDS011;10873;51.132;16.848;2022-11-15T05:46:30;29.48;;;19.65;;
21424;SDS011;10873;51.132;16.848;2022-11-15T05:48:58;26.45;;;19.50;;
21424;SDS011;10873;51.132;16.848;2022-11-15T05:51:25;29.15;;;20.05;;
21424;SDS011;10873;51.132;16.848;2022-11-15T05:53:54;31.27;;;20.98;;
21424;SDS011;10873;51.132;16.848;2022-11-15T05:56:21;32.40;;;20.88;;
21424;SDS011;10873;51.132;16.848;2022-11-15T05:58:47;34.55;;;23.52;;
21424;SDS011;10873;51.132;16.848;2022-11-15T06:01:14;36.70;;;24.60;;
21424;SDS011;10873;51.132;16.848;2022-11-15T06:03:41;38.30;;;25.48;;
21424;SDS011;10873;51.132;16.848;2022-11-15T06:06:07;39.33;;;24.92;;
21424;SDS011;10873;51.132;16.848;2022-11-15T06:08:33;34.35;;;23.10;;
21424;SDS011;10873;51.132;16.848;2022-11-15T06:11:02;39.53;;;23.58;;
21424;SDS011;10873;51.132;16.848;2022-11-15T06:13:29;35.22;;;23.23;;
21424;SDS011;10873;51.132;16.848;2022-11-15T06:15:55;35.08;;;24.38;;
21424;SDS011;10873;51.132;16.848;2022-11-15T06:18:23;35.22;;;23.30;;
21424;SDS011;10873;51.132;16.848;2022-11-15T06:20:49;36.13;;;22.50;;
21424;SDS011;10873;51.132;16.848;2022-11-15T06:23:15;35.38;;;22.73;;
21424;SDS011;10873;51.132;16.848;2022-11-15T06:25:41;34.03;;;22.58;;
21424;SDS011;10873;51.132;16.848;2022-11-15T06:28:08;35.50;;;23.02;;
21424;SDS011;10873;51.132;16.848;2022-11-15T06:30:33;36.95;;;23.98;;
21424;SDS011;10873;51.132;16.848;2022-11-15T06:33:00;34.13;;;22.75;;
21424;SDS011;10873;51.132;16.848;2022-11-15T06:35:28;36.63;;;23.85;;
21424;SDS011;10873;51.132;16.848;2022-11-15T06:37:54;44.67;;;26.13;;
21424;SDS011;10873;51.132;16.848;2022-11-15T06:40:20;39.30;;;25.10;;
21424;SDS011;10873;51.132;16.848;2022-11-15T06:42:46;39.65;;;25.70;;
21424;SDS011;10873;51.132;16.848;2022-11-15T06:45:12;42.97;;;25.50;;
21424;SDS011;10873;51.132;16.848;2022-11-15T06:47:43;38.50;;;23.90;;
21424;SDS011;10873;51.132;16.848;2022-11-15T06:50:10;38.22;;;24.58;;
21424;SDS011;10873;51.132;16.848;2022-11-15T06:52:38;39.97;;;26.27;;
21424;SDS011;10873;51.132;16.848;2022-11-15T06:55:04;43.65;;;27.13;;
21424;SDS011;10873;51.132;16.848;2022-11-15T06:57:31;41.05;;;27.27;;
21424;SDS011;10873;51.132;16.848;2022-11-15T06:59:57;44.83;;;29.33;;
21424;SDS011;10873;51.132;16.848;2022-11-15T07:02:23;43.70;;;29.08;;
21424;SDS011;10873;51.132;16.848;2022-11-15T07:04:50;48.30;;;30.02;;
21424;SDS011;10873;51.132;16.848;2022-11-15T07:07:16;46.60;;;30.33;;
21424;SDS011;10873;51.132;16.848;2022-11-15T07:09:43;45.58;;;30.83;;
21424;SDS011;10873;51.132;16.848;2022-11-15T07:12:10;49.88;;;31.63;;
21424;SDS011;10873;51.132;16.848;2022-11-15T07:14:35;47.58;;;29.83;;
21424;SDS011;10873;51.132;16.848;2022-11-15T07:17:03;43.85;;;30.08;;
21424;SDS011;10873;51.132;16.848;2022-11-15T07:19:30;46.75;;;29.27;;
21424;SDS011;10873;51.132;16.848;2022-11-15T07:21:56;43.53;;;28.42;;
21424;SDS011;10873;51.132;16.848;2022-11-15T07:24:22;40.75;;;27.13;;
21424;SDS011;10873;51.132;16.848;2022-11-15T07:26:49;43.60;;;27.55;;
21424;SDS011;10873;51.132;16.848;2022-11-15T07:29:15;46.22;;;28.13;;
21424;SDS011;10873;51.132;16.848;2022-11-15T07:31:41;51.13;;;28.30;;
21424;SDS011;10873;51.132;16.848;2022-11-15T07:34:07;44.88;;;28.00;;
21424;SDS011;10873;51.132;16.848;2022-11-15T07:36:35;42.72;;;28.63;;
21424;SDS011;10873;51.132;16.848;2022-11-15T07:39:01;39.53;;;26.70;;
21424;SDS011;10873;51.132;16.848;2022-11-15T07:41:27;44.35;;;27.85;;
21424;SDS011;10873;51.132;16.848;2022-11-15T07:43:55;42.80;;;28.05;;
21424;SDS011;10873;51.132;16.848;2022-11-15T07:46:22;41.05;;;27.42;;
21424;SDS011;10873;51.132;16.848;2022-11-15T07:48:48;41.50;;;27.65;;
21424;SDS011;10873;51.132;16.848;2022-11-15T07:51:15;39.95;;;27.25;;
21424;SDS011;10873;51.132;16.848;2022-11-15T07:53:42;37.53;;;26.38;;
21424;SDS011;10873;51.132;16.848;2022-11-15T07:56:08;36.30;;;25.52;;
21424;SDS011;10873;51.132;16.848;2022-11-15T07:58:36;40.65;;;25.75;;
21424;SDS011;10873;51.132;16.848;2022-11-15T08:01:04;36.92;;;25.38;;
21424;SDS011;10873;51.132;16.848;2022-11-15T08:03:30;36.92;;;25.30;;
21424;SDS011;10873;51.132;16.848;2022-11-15T08:05:57;37.15;;;24.63;;
21424;SDS011;10873;51.132;16.848;2022-11-15T08:08:23;35.25;;;24.85;;
21424;SDS011;10873;51.132;16.848;2022-11-15T08:10:49;37.58;;;25.15;;
21424;SDS011;10873;51.132;16.848;2022-11-15T08:13:16;37.63;;;24.77;;
21424;SDS011;10873;51.132;16.848;2022-11-15T08:15:42;38.88;;;25.48;;
21424;SDS011;10873;51.132;16.848;2022-11-15T08:18:10;35.83;;;23.63;;
21424;SDS011;10873;51.132;16.848;2022-11-15T08:20:38;37.15;;;26.05;;
21424;SDS011;10873;51.132;16.848;2022-11-15T08:23:04;34.95;;;24.98;;
21424;SDS011;10873;51.132;16.848;2022-11-15T08:25:32;37.30;;;24.17;;
21424;SDS011;10873;51.132;16.848;2022-11-15T08:27:59;38.90;;;24.63;;
21424;SDS011;10873;51.132;16.848;2022-11-15T08:30:26;34.00;;;23.65;;
21424;SDS011;10873;51.132;16.848;2022-11-15T08:32:54;38.35;;;23.25;;
21424;SDS011;10873;51.132;16.848;2022-11-15T08:35:24;33.95;;;22.88;;
21424;SDS011;10873;51.132;16.848;2022-11-15T08:37:51;35.17;;;23.33;;
21424;SDS011;10873;51.132;16.848;2022-11-15T08:40:18;33.53;;;23.13;;
21424;SDS011;10873;51.132;16.848;2022-11-15T08:42:45;40.00;;;23.73;;
21424;SDS011;10873;51.132;16.848;2022-11-15T08:45:12;35.47;;;22.70;;
21424;SDS011;10873;51.132;16.848;2022-11-15T08:47:38;34.95;;;24.15;;
21424;SDS011;10873;51.132;16.848;2022-11-15T08:50:04;34.10;;;23.05;;
21424;SDS011;10873;51.132;16.848;2022-11-15T08:52:32;36.22;;;23.42;;
21424;SDS011;10873;51.132;16.848;2022-11-15T08:54:59;36.17;;;23.55;;
21424;SDS011;10873;51.132;16.848;2022-11-15T08:57:27;39.00;;;24.63;;
21424;SDS011;10873;51.132;16.848;2022-11-15T08:59:55;33.67;;;23.77;;
21424;SDS011;10873;51.132;16.848;2022-11-15T09:02:20;37.50;;;23.75;;
21424;SDS011;10873;51.132;16.848;2022-11-15T09:04:47;32.40;;;22.85;;
21424;SDS011;10873;51.132;16.848;2022-11-15T09:07:13;35.95;;;23.83;;
21424;SDS011;10873;51.132;16.848;2022-11-15T09:09:41;32.10;;;22.00;;
21424;SDS011;10873;51.132;16.848;2022-11-15T09:12:07;34.38;;;22.80;;
21424;SDS011;10873;51.132;16.848;2022-11-15T09:14:33;35.10;;;22.20;;
21424;SDS011;10873;51.132;16.848;2022-11-15T09:16:59;33.35;;;22.52;;
21424;SDS011;10873;51.132;16.848;2022-11-15T09:19:25;30.58;;;21.52;;
21424;SDS011;10873;51.132;16.848;2022-11-15T09:21:51;33.08;;;22.85;;
21424;SDS011;10873;51.132;16.848;2022-11-15T09:24:18;33.47;;;22.85;;
21424;SDS011;10873;51.132;16.848;2022-11-15T09:26:45;33.47;;;21.88;;
21424;SDS011;10873;51.132;16.848;2022-11-15T09:29:11;30.85;;;21.30;;
21424;SDS011;10873;51.132;16.848;2022-11-15T09:31:37;33.22;;;22.70;;
21424;SDS011;10873;51.132;16.848;2022-11-15T09:34:03;32.03;;;21.35;;
21424;SDS011;10873;51.132;16.848;2022-11-15T09:36:30;32.13;;;22.27;;
21424;SDS011;10873;51.132;16.848;2022-11-15T09:38:57;33.00;;;20.70;;
21424;SDS011;10873;51.132;16.848;2022-11-15T09:41:28;30.58;;;20.50;;
21424;SDS011;10873;51.132;16.848;2022-11-15T09:44:08;30.98;;;20.70;;
21424;SDS011;10873;51.132;16.848;2022-11-15T09:46:45;32.30;;;20.70;;
21424;SDS011;10873;51.132;16.848;2022-11-15T09:49:18;30.67;;;20.58;;
21424;SDS011;10873;51.132;16.848;2022-11-15T09:51:44;33.13;;;20.80;;
21424;SDS011;10873;51.132;16.848;2022-11-15T09:54:16;32.00;;;20.90;;
21424;SDS011;10873;51.132;16.848;2022-11-15T09:56:51;28.38;;;20.40;;
21424;SDS011;10873;51.132;16.848;2022-11-15T09:59:23;28.73;;;19.35;;
21424;SDS011;10873;51.132;16.848;2022-11-15T10:02:02;32.90;;;20.35;;
21424;SDS011;10873;51.132;16.848;2022-11-15T10:04:36;27.50;;;18.52;;
21424;SDS011;10873;51.132;16.848;2022-11-15T10:07:04;28.58;;;19.58;;
21424;SDS011;10873;51.132;16.848;2022-11-15T10:09:38;28.27;;;18.83;;
21424;SDS011;10873;51.132;16.848;2022-11-15T10:12:12;28.85;;;19.08;;
21424;SDS011;10873;51.132;16.848;2022-11-15T10:14:40;26.90;;;18.83;;
21424;SDS011;10873;51.132;16.848;2022-11-15T10:17:13;27.02;;;19.05;;
21424;SDS011;10873;51.132;16.848;2022-11-15T10:20:00;24.85;;;17.65;;
21424;SDS011;10873;51.132;16.848;2022-11-15T10:22:35;25.88;;;18.67;;
21424;SDS011;10873;51.132;16.848;2022-11-15T10:25:14;24.70;;;17.42;;
21424;SDS011;10873;51.132;16.848;2022-11-15T10:27:43;26.98;;;17.70;;
21424;SDS011;10873;51.132;16.848;2022-11-15T10:30:15;28.45;;;18.17;;
21424;SDS011;10873;51.132;16.848;2022-11-15T10:32:43;25.35;;;17.27;;
21424;SDS011;10873;51.132;16.848;2022-11-15T10:35:17;24.98;;;17.15;;
21424;SDS011;10873;51.132;16.848;2022-11-15T10:37:48;27.35;;;18.80;;
21424;SDS011;10873;51.132;16.848;2022-11-15T10:40:15;23.33;;;17.25;;
21424;SDS011;10873;51.132;16.848;2022-11-15T10:42:43;21.90;;;15.45;;
21424;SDS011;10873;51.132;16.848;2022-11-15T10:45:23;24.70;;;16.67;;
21424;SDS011;10873;51.132;16.848;2022-11-15T10:47:54;23.25;;;16.95;;
21424;SDS011;10873;51.132;16.848;2022-11-15T10:50:48;23.60;;;16.25;;
21424;SDS011;10873;51.132;16.848;2022-11-15T10:53:19;23.38;;;17.15;;
21424;SDS011;10873;51.132;16.848;2022-11-15T10:55:49;24.95;;;16.73;;
21424;SDS011;10873;51.132;16.848;2022-11-15T10:58:21;25.00;;;15.25;;
21424;SDS011;10873;51.132;16.848;2022-11-15T11:00:57;23.65;;;16.50;;
21424;SDS011;10873;51.132;16.848;2022-11-15T11:03:35;22.10;;;15.82;;
21424;SDS011;10873;51.132;16.848;2022-11-15T11:06:04;21.67;;;15.85;;
21424;SDS011;10873;51.132;16.848;2022-11-15T11:08:32;21.52;;;14.60;;
21424;SDS011;10873;51.132;16.848;2022-11-15T11:11:00;20.58;;;15.30;;
21424;SDS011;10873;51.132;16.848;2022-11-15T11:13:27;23.13;;;15.80;;
21424;SDS011;10873;51.132;16.848;2022-11-15T11:16:06;21.33;;;14.60;;
21424;SDS011;10873;51.132;16.848;2022-11-15T11:18:44;24.58;;;15.10;;
21424;SDS011;10873;51.132;16.848;2022-11-15T11:21:22;19.48;;;14.52;;
21424;SDS011;10873;51.132;16.848;2022-11-15T11:23:52;20.02;;;14.45;;
21424;SDS011;10873;51.132;16.848;2022-11-15T11:26:28;19.45;;;13.80;;
21424;SDS011;10873;51.132;16.848;2022-11-15T11:29:10;18.98;;;13.70;;
21424;SDS011;10873;51.132;16.848;2022-11-15T11:31:49;20.35;;;13.93;;
21424;SDS011;10873;51.132;16.848;2022-11-15T11:34:28;20.20;;;13.52;;
21424;SDS011;10873;51.132;16.848;2022-11-15T11:37:07;17.45;;;12.82;;
21424;SDS011;10873;51.132;16.848;2022-11-15T11:39:40;19.63;;;13.30;;
21424;SDS011;10873;51.132;16.848;2022-11-15T11:42:16;19.20;;;13.80;;
21424;SDS011;10873;51.132;16.848;2022-11-15T11:44:52;17.05;;;13.43;;
21424;SDS011;10873;51.132;16.848;2022-11-15T11:47:30;17.23;;;12.82;;
21424;SDS011;10873;51.132;16.848;2022-11-15T11:50:00;16.70;;;12.70;;
21424;SDS011;10873;51.132;16.848;2022-11-15T11:52:37;18.73;;;13.02;;
21424;SDS011;10873;51.132;16.848;2022-11-15T11:55:12;17.77;;;12.90;;
21424;SDS011;10873;51.132;16.848;2022-11-15T11:57:44;17.13;;;13.07;;
21424;SDS011;10873;51.132;16.848;2022-11-15T12:00:15;17.80;;;13.43;;
21424;SDS011;10873;51.132;16.848;2022-11-15T12:02:47;17.48;;;12.73;;
21424;SDS011;10873;51.132;16.848;2022-11-15T12:05:22;15.45;;;12.00;;
21424;SDS011;10873;51.132;16.848;2022-11-15T12:07:54;16.48;;;12.73;;
21424;SDS011;10873;51.132;16.848;2022-11-15T12:10:28;18.95;;;13.02;;
21424;SDS011;10873;51.132;16.848;2022-11-15T12:12:58;16.77;;;12.60;;
21424;SDS011;10873;51.132;16.848;2022-11-15T12:15:30;17.27;;;12.07;;
21424;SDS011;10873;51.132;16.848;2022-11-15T12:18:00;17.73;;;12.55;;
21424;SDS011;10873;51.132;16.848;2022-11-15T12:20:27;15.27;;;11.52;;
21424;SDS011;10873;51.132;16.848;2022-11-15T12:22:59;18.08;;;12.88;;
21424;SDS011;10873;51.132;16.848;2022-11-15T12:25:29;15.25;;;11.95;;
21424;SDS011;10873;51.132;16.848;2022-11-15T12:28:00;14.45;;;11.00;;
21424;SDS011;10873;51.132;16.848;2022-11-15T12:30:38;15.63;;;11.90;;
21424;SDS011;10873;51.132;16.848;2022-11-15T12:35:59;15.70;;;11.80;;
21424;SDS011;10873;51.132;16.848;2022-11-15T12:41:18;14.68;;;11.18;;
21424;SDS011;10873;51.132;16.848;2022-11-15T12:43:45;15.50;;;11.55;;
21424;SDS011;10873;51.132;16.848;2022-11-15T12:46:14;18.15;;;12.07;;
21424;SDS011;10873;51.132;16.848;2022-11-15T12:48:53;18.35;;;11.48;;
21424;SDS011;10873;51.132;16.848;2022-11-15T12:51:21;13.30;;;10.90;;
21424;SDS011;10873;51.132;16.848;2022-11-15T12:54:11;18.45;;;11.15;;
21424;SDS011;10873;51.132;16.848;2022-11-15T12:57:25;14.15;;;10.43;;
21424;SDS011;10873;51.132;16.848;2022-11-15T13:00:36;15.05;;;10.32;;
21424;SDS011;10873;51.132;16.848;2022-11-15T13:03:16;13.60;;;10.57;;
21424;SDS011;10873;51.132;16.848;2022-11-15T13:05:54;14.57;;;10.45;;
21424;SDS011;10873;51.132;16.848;2022-11-15T13:20:15;15.98;;;9.80;;
21424;SDS011;10873;51.132;16.848;2022-11-15T13:22:49;13.63;;;9.80;;
21424;SDS011;10873;51.132;16.848;2022-11-15T13:25:19;13.15;;;10.30;;
21424;SDS011;10873;51.132;16.848;2022-11-15T13:28:08;14.77;;;9.95;;
21424;SDS011;10873;51.132;16.848;2022-11-15T13:30:36;17.95;;;9.95;;
21424;SDS011;10873;51.132;16.848;2022-11-15T13:33:07;13.82;;;9.95;;
21424;SDS011;10873;51.132;16.848;2022-11-15T13:35:36;15.80;;;9.88;;
21424;SDS011;10873;51.132;16.848;2022-11-15T13:38:11;13.00;;;9.57;;
21424;SDS011;10873;51.132;16.848;2022-11-15T13:40:45;14.88;;;9.85;;
21424;SDS011;10873;51.132;16.848;2022-11-15T13:43:17;14.65;;;9.98;;
21424;SDS011;10873;51.132;16.848;2022-11-15T13:46:03;13.05;;;9.25;;
21424;SDS011;10873;51.132;16.848;2022-11-15T13:48:30;14.45;;;9.23;;
21424;SDS011;10873;51.132;16.848;2022-11-15T13:50:58;13.02;;;9.50;;
21424;SDS011;10873;51.132;16.848;2022-11-15T13:53:27;13.80;;;10.10;;
21424;SDS011;10873;51.132;16.848;2022-11-15T13:55:53;12.02;;;9.15;;
21424;SDS011;10873;51.132;16.848;2022-11-15T13:58:21;12.95;;;9.95;;
21424;SDS011;10873;51.132;16.848;2022-11-15T14:00:47;18.52;;;9.50;;
21424;SDS011;10873;51.132;16.848;2022-11-15T14:03:16;12.70;;;9.77;;
21424;SDS011;10873;51.132;16.848;2022-11-15T14:05:44;32.67;;;11.95;;
21424;SDS011;10873;51.132;16.848;2022-11-15T14:08:29;44.65;;;12.82;;
21424;SDS011;10873;51.132;16.848;2022-11-15T14:11:08;30.45;;;12.07;;
21424;SDS011;10873;51.132;16.848;2022-11-15T14:13:38;36.47;;;12.02;;
21424;SDS011;10873;51.132;16.848;2022-11-15T14:16:14;33.10;;;11.07;;
21424;SDS011;10873;51.132;16.848;2022-11-15T14:18:43;33.85;;;12.15;;
21424;SDS011;10873;51.132;16.848;2022-11-15T14:21:11;24.80;;;10.77;;
21424;SDS011;10873;51.132;16.848;2022-11-15T14:23:38;28.25;;;11.43;;
21424;SDS011;10873;51.132;16.848;2022-11-15T14:26:04;28.85;;;11.23;;
21424;SDS011;10873;51.132;16.848;2022-11-15T14:28:31;26.52;;;12.02;;
21424;SDS011;10873;51.132;16.848;2022-11-15T14:31:04;19.08;;;10.75;;
21424;SDS011;10873;51.132;16.848;2022-11-15T14:33:37;23.48;;;11.10;;
21424;SDS011;10873;51.132;16.848;2022-11-15T14:36:06;18.27;;;10.60;;
21424;SDS011;10873;51.132;16.848;2022-11-15T14:38:36;28.10;;;11.38;;
21424;SDS011;10873;51.132;16.848;2022-11-15T14:41:04;16.80;;;10.98;;
21424;SDS011;10873;51.132;16.848;2022-11-15T14:43:31;19.70;;;10.82;;
21424;SDS011;10873;51.132;16.848;2022-11-15T14:45:57;22.20;;;11.32;;
21424;SDS011;10873;51.132;16.848;2022-11-15T14:48:23;26.95;;;11.25;;
21424;SDS011;10873;51.132;16.848;2022-11-15T14:50:49;20.73;;;11.63;;
21424;SDS011;10873;51.132;16.848;2022-11-15T14:53:16;23.23;;;11.38;;
21424;SDS011;10873;51.132;16.848;2022-11-15T14:55:44;16.05;;;11.20;;
21424;SDS011;10873;51.132;16.848;2022-11-15T14:58:10;22.30;;;11.02;;
21424;SDS011;10873;51.132;16.848;2022-11-15T15:00:36;18.33;;;10.95;;
21424;SDS011;10873;51.132;16.848;2022-11-15T15:03:04;20.70;;;11.35;;